Terminal Aerodrome Forecast
Issued by NWS

Home | Current Version | Previous Version | Text Only | Print | Product List | Glossary On
Versions: 1 2 3 4 5 6 7 8 9 10 11 12 13 14 15 16 17 18 19 20 21 22 23 24 25 26 27 28 29 30 31 32 33 34 35 36 37
000
FTUS46 KOTX 262322
TAFCOE
TAF
KCOE 262322Z 2700/2724 VRB04KT P6SM SCT060 BKN090
      TEMPO 2700/2704 -SHRA BKN060
     FM270400 08005KT P6SM SCT060 BKN100
     FM271500 05004KT P6SM VCSH BKN050 BKN100
     FM272000 VRB04KT P6SM -SHRA VCTS BKN040CB BKN070
      AMD LTD TO CLD AND VIS=

USA.gov is the U.S. government's official web portal to all federal, state and local government web resources and services.